Time;durP1;ratioP1;P1;durP2;ratioP2;P2;SDS_P1;SDS_P2;PMS_P1;PMS_P2;Temp;Humidity;BMP_temperature;BMP_pressure;BME280_temperature;BME280_humidity;BME280_pressure;Samples;Min_cycle;Max_cycle;Signal;HPM_P1;HPM_P2
2021/09/25 00:00:34;;;;;;;;;24.25;22.75;;;;;18.77;47.85;101199.78;5001620;28;46249;-43
2021/09/25 00:03:02;;;;;;;;;24.25;22.50;;;;;18.78;48.37;101200.63;5001675;28;45333;-44
2021/09/25 00:05:30;;;;;;;;;24.50;20.75;;;;;18.75;48.15;101203.44;5000872;28;45256;-42
2021/09/25 00:07:56;;;;;;;;;20.75;20.50;;;;;18.73;48.15;101202.63;5001595;28;45256;-42
2021/09/25 00:10:22;;;;;;;;;21.00;19.75;;;;;18.71;48.48;101193.84;5001552;28;45440;-42
2021/09/25 00:12:48;;;;;;;;;19.00;18.25;;;;;18.67;48.19;101196.63;5001304;28;45340;-42
2021/09/25 00:15:14;;;;;;;;;20.75;19.00;;;;;18.65;48.67;101186.97;5001693;28;45365;-42
2021/09/25 00:17:40;;;;;;;;;26.75;23.75;;;;;18.61;48.65;101196.88;5001734;28;45492;-43
2021/09/25 00:20:07;;;;;;;;;23.50;20.50;;;;;18.59;48.80;101201.41;5001602;28;46169;-43
2021/09/25 00:22:32;;;;;;;;;22.50;22.50;;;;;18.53;48.68;101193.66;5001496;28;45310;-44
2021/09/25 00:24:57;;;;;;;;;21.75;19.00;;;;;18.54;48.80;101197.19;5001638;28;45792;-43
2021/09/25 00:27:24;;;;;;;;;25.00;22.00;;;;;18.50;48.75;101192.00;4983615;28;45355;-43
2021/09/25 00:29:50;;;;;;;;;16.75;15.25;;;;;18.50;49.10;101201.75;5001757;28;46908;-42
2021/09/25 00:32:15;;;;;;;;;23.25;20.25;;;;;18.47;48.79;101196.56;5001079;28;45266;-42
2021/09/25 00:34:41;;;;;;;;;22.25;21.00;;;;;18.44;48.90;101192.25;5001521;28;45292;-46
2021/09/25 00:37:07;;;;;;;;;24.00;21.00;;;;;18.41;48.98;101183.50;5001293;28;45411;-42
2021/09/25 00:39:33;;;;;;;;;22.75;19.25;;;;;18.41;48.50;101189.69;5000821;28;45421;-42
2021/09/25 00:41:58;;;;;;;;;23.25;21.75;;;;;18.38;49.07;101186.28;4999629;28;45281;-42
2021/09/25 00:44:24;;;;;;;;;22.50;18.75;;;;;18.35;49.09;101193.47;5001347;28;45265;-46
2021/09/25 00:46:49;;;;;;;;;20.75;20.00;;;;;18.33;49.15;101175.84;5000864;28;45397;-42
2021/09/25 00:49:20;;;;;;;;;23.25;21.00;;;;;18.30;48.96;101175.94;5001259;28;45978;-42
2021/09/25 00:51:46;;;;;;;;;23.25;21.25;;;;;18.29;49.11;101179.56;5001031;28;45295;-41
2021/09/25 00:54:12;;;;;;;;;56.00;45.75;;;;;18.27;49.18;101181.41;5001107;28;45342;-43
2021/09/25 00:56:37;;;;;;;;;60.00;49.50;;;;;18.25;49.24;101189.44;5000925;28;45451;-43
2021/09/25 00:59:04;;;;;;;;;41.50;37.25;;;;;18.23;49.44;101190.44;5000908;28;46260;-43
2021/09/25 01:01:29;;;;;;;;;22.25;20.00;;;;;18.21;49.38;101184.31;5000660;28;45330;-42
2021/09/25 01:03:55;;;;;;;;;23.50;22.75;;;;;18.19;49.34;101187.88;5001056;28;45503;-42
2021/09/25 01:06:20;;;;;;;;;19.25;18.75;;;;;18.19;49.20;101192.34;4999613;28;45436;-43
2021/09/25 01:08:46;;;;;;;;;21.25;18.50;;;;;18.17;49.31;101189.72;5000904;28;46371;-42
2021/09/25 01:11:11;;;;;;;;;18.50;16.25;;;;;18.14;49.25;101181.88;5000827;28;45263;-42
2021/09/25 01:13:37;;;;;;;;;17.75;16.00;;;;;18.13;49.32;101180.13;5001056;28;45607;-42
2021/09/25 01:16:02;;;;;;;;;22.00;19.25;;;;;18.12;49.33;101180.22;5000718;28;45485;-45
2021/09/25 01:18:28;;;;;;;;;23.00;21.50;;;;;18.10;49.55;101174.94;5000887;28;45317;-44
2021/09/25 01:20:53;;;;;;;;;24.25;23.00;;;;;18.10;49.69;101174.06;5000806;28;45233;-44
2021/09/25 01:23:19;;;;;;;;;22.75;16.50;;;;;18.09;49.46;101177.69;5001096;28;45205;-43
2021/09/25 01:25:44;;;;;;;;;23.75;21.50;;;;;18.07;49.61;101171.53;5000785;28;45318;-43
2021/09/25 01:28:09;;;;;;;;;22.75;21.00;;;;;18.01;49.57;101159.34;5000578;28;45336;-43
2021/09/25 01:30:35;;;;;;;;;24.25;20.25;;;;;18.03;49.63;101165.47;5000554;28;45226;-45
2021/09/25 01:33:01;;;;;;;;;20.00;20.00;;;;;18.00;49.46;101160.28;5000863;28;45427;-43
2021/09/25 01:35:27;;;;;;;;;22.00;19.00;;;;;18.00;49.75;101157.63;4999193;28;45313;-42
2021/09/25 01:37:55;;;;;;;;;19.00;17.25;;;;;17.98;49.87;101152.34;5000503;28;46217;-44
2021/09/25 01:40:21;;;;;;;;;21.75;17.50;;;;;17.96;49.47;101153.34;5000540;28;45260;-42
2021/09/25 01:42:46;;;;;;;;;24.00;21.50;;;;;17.95;49.95;101149.81;5000509;28;45432;-42
2021/09/25 01:45:13;;;;;;;;;20.25;20.25;;;;;17.93;49.80;101146.31;5000296;28;45227;-43
2021/09/25 01:47:39;;;;;;;;;23.75;22.25;;;;;17.90;49.76;101149.09;5000509;28;46588;-44
2021/09/25 01:50:07;;;;;;;;;23.00;22.50;;;;;17.89;49.84;101152.69;4999185;28;45473;-43
2021/09/25 01:52:32;;;;;;;;;18.00;18.00;;;;;17.86;50.16;101151.00;4999202;28;45386;-43
2021/09/25 01:54:58;;;;;;;;;21.75;21.50;;;;;17.85;49.87;101154.59;5000126;28;45416;-44
2021/09/25 01:57:23;;;;;;;;;20.50;19.50;;;;;17.83;50.00;101148.44;5015528;28;45905;-43
2021/09/25 01:59:49;;;;;;;;;22.25;19.75;;;;;17.81;50.12;101147.66;5000255;28;45309;-44
2021/09/25 02:02:16;;;;;;;;;26.75;21.00;;;;;17.81;50.03;101144.13;5000277;28;45519;-43
2021/09/25 02:04:47;;;;;;;;;24.50;21.75;;;;;17.77;49.94;101132.72;5000117;28;45422;-42
2021/09/25 02:07:17;;;;;;;;;22.25;21.25;;;;;17.77;50.07;101143.38;5000178;28;46951;-43
2021/09/25 02:09:43;;;;;;;;;25.00;18.50;;;;;17.75;50.03;101136.38;4999916;28;45379;-42
2021/09/25 02:12:08;;;;;;;;;25.75;24.75;;;;;17.73;50.06;101131.13;5000045;28;45384;-42
2021/09/25 02:14:33;;;;;;;;;25.25;23.50;;;;;17.72;50.16;101126.72;5000074;28;45584;-42
2021/09/25 02:16:59;;;;;;;;;27.25;22.00;;;;;17.70;50.12;101132.09;4999833;28;46280;-44
2021/09/25 02:19:24;;;;;;;;;23.25;21.50;;;;;17.67;50.15;101129.59;5000060;28;45233;-44
2021/09/25 02:21:50;;;;;;;;;24.50;21.75;;;;;17.65;50.27;101131.41;5000265;28;45283;-42
2021/09/25 02:24:16;;;;;;;;;19.00;19.00;;;;;17.65;50.23;101133.22;4999938;28;45640;-42
2021/09/25 02:26:42;;;;;;;;;28.50;22.50;;;;;17.63;50.14;101129.75;5000115;28;46990;-45
2021/09/25 02:29:08;;;;;;;;;22.50;21.00;;;;;17.61;50.25;101136.91;4999864;28;45323;-43
2021/09/25 02:31:33;;;;;;;;;20.00;20.00;;;;;17.58;50.28;101132.56;4999738;28;45385;-43
2021/09/25 02:33:59;;;;;;;;;24.00;21.00;;;;;17.58;50.37;101137.03;4999727;28;45479;-43
2021/09/25 02:36:24;;;;;;;;;24.75;22.25;;;;;17.55;50.40;101135.34;4999571;28;45270;-44
2021/09/25 02:38:50;;;;;;;;;30.25;23.00;;;;;17.53;50.41;101130.09;4999721;28;45380;-44
2021/09/25 02:41:15;;;;;;;;;24.25;22.75;;;;;17.51;50.56;101129.28;4999879;28;45358;-43
2021/09/25 02:43:40;;;;;;;;;27.00;23.25;;;;;17.50;50.44;101140.81;4999588;28;45319;-44
2021/09/25 02:46:06;;;;;;;;;32.00;27.25;;;;;17.48;50.45;101139.16;4999459;28;45946;-44
2021/09/25 02:48:31;;;;;;;;;24.75;22.25;;;;;17.47;50.48;101124.13;4999647;28;45246;-44
2021/09/25 02:50:57;;;;;;;;;24.00;21.00;;;;;17.44;50.37;101119.78;4999911;28;45168;-42
2021/09/25 02:53:22;;;;;;;;;29.50;23.00;;;;;17.43;50.57;101128.69;4999655;28;45610;-43
2021/09/25 02:55:47;;;;;;;;;25.50;22.75;;;;;17.41;50.54;101116.38;4998329;28;46253;-43
2021/09/25 02:58:13;;;;;;;;;23.50;20.75;;;;;17.39;50.53;101121.75;4999371;28;45232;-44
2021/09/25 03:00:38;;;;;;;;;22.25;21.75;;;;;17.38;50.68;101120.91;4999677;28;45295;-44
2021/09/25 03:03:03;;;;;;;;;24.75;23.75;;;;;17.37;50.78;101118.28;5002848;28;45594;-44
2021/09/25 03:05:29;;;;;;;;;21.75;18.00;;;;;17.35;50.55;101112.19;5002807;28;46083;-44
2021/09/25 03:07:55;;;;;;;;;22.25;21.50;;;;;17.32;50.66;101113.16;5002802;28;45266;-43
2021/09/25 03:10:20;;;;;;;;;26.50;22.25;;;;;17.30;50.70;101101.72;5003077;28;45217;-44
2021/09/25 03:12:45;;;;;;;;;21.75;20.25;;;;;17.29;50.93;101109.75;5002501;28;45160;-43
2021/09/25 03:15:11;;;;;;;;;26.50;23.25;;;;;17.26;50.94;101118.69;5002538;28;46033;-43
2021/09/25 03:17:37;;;;;;;;;24.25;22.50;;;;;17.24;50.66;101112.56;5002611;28;45337;-43
2021/09/25 03:20:04;;;;;;;;;22.50;21.50;;;;;17.22;50.92;101115.28;5002883;28;45285;-43
2021/09/25 03:22:29;;;;;;;;;22.25;20.25;;;;;17.20;50.87;101125.06;5002604;28;45259;-42
2021/09/25 03:24:55;;;;;;;;;22.75;22.75;;;;;17.19;50.91;101120.72;5002537;28;46929;-43
2021/09/25 03:27:20;;;;;;;;;23.25;21.75;;;;;17.17;51.03;101117.22;5001147;28;45387;-45
2021/09/25 03:29:46;;;;;;;;;21.50;20.75;;;;;17.15;50.82;101108.44;5002838;28;45259;-44
2021/09/25 03:32:11;;;;;;;;;21.00;20.00;;;;;17.06;50.89;101098.16;5002265;28;45316;-43
2021/09/25 03:34:36;;;;;;;;;24.25;23.00;;;;;17.11;50.77;101098.88;5000954;28;45310;-44
2021/09/25 03:37:02;;;;;;;;;21.25;18.25;;;;;17.10;50.87;101088.31;5002375;28;45281;-43
2021/09/25 03:39:27;;;;;;;;;24.00;22.50;;;;;17.06;50.89;101088.41;5002761;28;45364;-44
2021/09/25 03:41:53;;;;;;;;;24.50;23.75;;;;;17.06;51.08;101090.19;5002199;28;45234;-42
2021/09/25 03:44:18;;;;;;;;;20.00;20.00;;;;;17.04;50.92;101100.88;5002304;28;45308;-44
2021/09/25 03:46:43;;;;;;;;;21.00;19.25;;;;;17.02;51.01;101105.38;5002207;28;45260;-44
2021/09/25 03:49:09;;;;;;;;;25.25;22.50;;;;;17.01;51.10;101102.78;5001212;28;45428;-43
2021/09/25 03:51:34;;;;;;;;;23.75;23.00;;;;;16.99;51.09;101101.94;5002158;28;45472;-43
2021/09/25 03:53:59;;;;;;;;;26.50;24.00;;;;;16.97;51.25;101096.69;5002092;28;46270;-42
2021/09/25 03:56:25;;;;;;;;;21.50;21.50;;;;;16.95;51.00;101109.16;5002221;28;45312;-42
2021/09/25 03:58:50;;;;;;;;;26.50;22.50;;;;;16.94;51.08;101101.25;5002364;28;45393;-45
2021/09/25 04:01:16;;;;;;;;;27.00;21.75;;;;;16.93;51.05;101100.38;5000493;28;45416;-43
2021/09/25 04:03:42;;;;;;;;;25.25;25.00;;;;;16.92;51.56;101105.72;5002140;28;45341;-43
2021/09/25 04:06:07;;;;;;;;;29.25;26.25;;;;;16.90;51.10;101111.06;5001915;28;45372;-43
2021/09/25 04:08:33;;;;;;;;;27.75;26.00;;;;;16.88;51.44;101108.47;5002318;28;45455;-42
2021/09/25 04:10:58;;;;;;;;;21.00;19.75;;;;;16.88;51.06;101104.97;5001692;28;45320;-44
2021/09/25 04:13:23;;;;;;;;;29.75;26.25;;;;;16.85;51.54;101095.28;5000876;28;45317;-45
2021/09/25 04:15:49;;;;;;;;;26.25;26.25;;;;;16.83;50.79;101099.81;5001770;28;45392;-44
2021/09/25 04:18:14;;;;;;;;;26.00;25.25;;;;;16.82;51.24;101100.72;5000794;28;45358;-42
2021/09/25 04:20:40;;;;;;;;;25.25;22.50;;;;;16.82;51.39;101099.88;5001672;28;45330;-42
2021/09/25 04:23:06;;;;;;;;;24.00;23.00;;;;;16.77;51.55;101094.72;5001821;28;45251;-42
2021/09/25 04:25:32;;;;;;;;;30.75;26.00;;;;;16.77;51.45;101096.50;5001676;28;45274;-43
2021/09/25 04:27:59;;;;;;;;;29.00;25.25;;;;;16.74;51.29;101089.50;5001852;28;45358;-44
2021/09/25 04:30:24;;;;;;;;;23.25;23.25;;;;;16.73;51.44;101087.78;5001362;28;45460;-43
2021/09/25 04:32:50;;;;;;;;;23.75;21.25;;;;;16.74;51.39;101089.50;5001315;28;45297;-43
2021/09/25 04:35:15;;;;;;;;;25.50;25.00;;;;;16.72;51.52;101097.50;5000058;28;45683;-42
2021/09/25 04:37:41;;;;;;;;;24.50;22.00;;;;;16.71;51.48;101094.91;5001691;28;45242;-44
2021/09/25 04:40:07;;;;;;;;;27.25;23.75;;;;;16.69;51.70;101088.78;5001472;28;45315;-44
2021/09/25 04:42:32;;;;;;;;;29.00;26.25;;;;;16.68;51.55;101085.28;5001235;28;45393;-44
2021/09/25 04:44:58;;;;;;;;;27.75;27.00;;;;;16.67;51.52;101085.34;5001008;28;45302;-43
2021/09/25 04:47:23;;;;;;;;;27.50;25.25;;;;;16.65;51.90;101084.50;5001662;28;45335;-43
2021/09/25 04:49:49;;;;;;;;;23.50;21.75;;;;;16.65;51.88;101087.16;5001291;28;45369;-44
2021/09/25 04:52:14;;;;;;;;;31.25;26.00;;;;;16.62;51.61;101087.28;5001325;28;45313;-42
2021/09/25 04:54:39;;;;;;;;;24.75;20.75;;;;;16.62;51.85;101089.94;5001115;28;45329;-42
2021/09/25 04:57:05;;;;;;;;;29.00;25.00;;;;;16.56;51.80;101078.63;5001393;28;45396;-42
2021/09/25 04:59:30;;;;;;;;;28.25;23.00;;;;;16.60;52.00;101082.00;5001092;28;45502;-42
2021/09/25 05:01:55;;;;;;;;;28.00;25.25;;;;;16.60;51.88;101091.75;4996387;28;48716;-43
2021/09/25 05:04:21;;;;;;;;;25.75;23.75;;;;;16.58;51.67;101097.97;4996978;28;45239;-43
2021/09/25 05:06:47;;;;;;;;;29.25;25.50;;;;;16.56;51.51;101093.66;5001495;28;45313;-42
2021/09/25 05:09:12;;;;;;;;;28.75;23.25;;;;;16.57;51.67;101090.09;5000899;28;45180;-43
2021/09/25 05:11:38;;;;;;;;;28.75;23.00;;;;;16.56;51.70;101094.53;4999654;28;46174;-44
2021/09/25 05:14:03;;;;;;;;;28.00;25.50;;;;;16.55;51.67;101084.84;5015955;28;45463;-43
2021/09/25 05:16:29;;;;;;;;;27.00;24.25;;;;;16.55;52.07;101092.78;5000989;28;45345;-43
2021/09/25 05:18:54;;;;;;;;;30.75;30.50;;;;;16.52;51.50;101087.56;5000929;28;45400;-44
2021/09/25 05:21:21;;;;;;;;;28.50;24.75;;;;;16.53;51.95;101093.75;5000960;28;45307;-44
2021/09/25 05:23:47;;;;;;;;;28.00;23.50;;;;;16.50;51.76;101088.53;5000576;28;45326;-44
2021/09/25 05:26:12;;;;;;;;;24.00;22.25;;;;;16.51;51.77;101095.59;5000860;28;45251;-44
2021/09/25 05:28:37;;;;;;;;;27.25;25.00;;;;;16.48;51.90;101075.34;5000675;28;45420;-43
2021/09/25 05:31:03;;;;;;;;;27.50;25.00;;;;;16.49;51.82;101081.50;5000399;28;45936;-42
2021/09/25 05:33:28;;;;;;;;;27.75;25.00;;;;;16.46;52.14;101078.97;5000651;28;45355;-43
2021/09/25 05:35:53;;;;;;;;;59.25;45.75;;;;;16.46;51.90;101077.16;5000486;28;45484;-43
2021/09/25 05:38:19;;;;;;;;;24.50;24.00;;;;;16.44;52.16;101079.03;4999226;28;45328;-43
2021/09/25 05:40:44;;;;;;;;;26.00;23.00;;;;;16.44;52.03;101078.13;5000712;28;46260;-43
2021/09/25 05:43:09;;;;;;;;;29.00;27.00;;;;;16.42;52.09;101078.19;5000508;28;45371;-43
2021/09/25 05:45:35;;;;;;;;;24.25;23.25;;;;;16.41;52.23;101073.81;5000471;28;45315;-44
2021/09/25 05:48:00;;;;;;;;;26.25;23.75;;;;;16.40;52.17;101078.25;5000521;28;45512;-43
2021/09/25 05:50:26;;;;;;;;;23.00;21.75;;;;;16.39;52.19;101088.91;5000564;28;45382;-43
2021/09/25 05:52:51;;;;;;;;;29.25;23.25;;;;;16.38;52.14;101089.84;5000476;28;45410;-44
2021/09/25 05:55:16;;;;;;;;;28.25;25.50;;;;;16.37;52.12;101086.28;5000626;28;45384;-44
2021/09/25 05:57:43;;;;;;;;;28.50;25.75;;;;;16.31;51.90;101072.38;4982682;28;46140;-44
2021/09/25 06:00:09;;;;;;;;;29.00;26.75;;;;;16.35;52.09;101085.50;5000119;28;45247;-43
2021/09/25 06:02:37;;;;;;;;;23.25;22.25;;;;;16.33;51.90;101082.03;5000401;28;45167;-45
2021/09/25 06:05:03;;;;;;;;;32.50;27.50;;;;;16.34;52.37;101077.56;5000282;28;45479;-44
2021/09/25 06:07:29;;;;;;;;;30.25;28.75;;;;;16.32;52.48;101082.94;5000096;28;45337;-42
2021/09/25 06:09:54;;;;;;;;;29.25;28.50;;;;;16.31;51.94;101083.84;4999989;28;46043;-42
2021/09/25 06:12:20;;;;;;;;;27.75;26.50;;;;;16.30;52.07;101082.13;4999996;28;45297;-43
2021/09/25 06:14:45;;;;;;;;;29.50;25.00;;;;;16.31;51.88;101083.84;5000148;28;45434;-42
2021/09/25 06:17:11;;;;;;;;;26.50;25.25;;;;;16.29;52.25;101085.69;4999699;28;45494;-42
2021/09/25 06:19:37;;;;;;;;;29.50;25.25;;;;;16.31;52.10;101088.28;5000166;28;45380;-43
2021/09/25 06:22:03;;;;;;;;;28.50;24.75;;;;;16.31;52.36;101097.09;5000009;28;45317;-43
2021/09/25 06:24:28;;;;;;;;;32.00;27.75;;;;;16.32;52.21;101100.63;4999910;28;45487;-43
2021/09/25 06:26:53;;;;;;;;;30.50;27.50;;;;;16.33;52.10;101099.72;5015283;28;45179;-43
2021/09/25 06:29:19;;;;;;;;;27.00;26.75;;;;;16.32;52.33;101093.53;4999842;28;46174;-43
2021/09/25 06:31:44;;;;;;;;;32.00;27.00;;;;;16.34;52.12;101096.13;4999620;28;45225;-42
2021/09/25 06:34:09;;;;;;;;;30.50;29.75;;;;;16.33;52.36;101097.06;4998450;28;45579;-43
2021/09/25 06:36:40;;;;;;;;;32.00;31.00;;;;;16.36;52.25;101091.66;5001279;28;45420;-42
2021/09/25 06:39:06;;;;;;;;;30.00;26.75;;;;;16.36;52.50;101095.19;5001921;28;47271;-43
2021/09/25 06:41:31;;;;;;;;;31.25;28.75;;;;;16.39;52.54;101088.91;5003075;28;45339;-43
2021/09/25 06:43:56;;;;;;;;;33.50;30.50;;;;;16.42;52.25;101091.47;5003144;28;45305;-42
2021/09/25 06:46:22;;;;;;;;;29.00;27.00;;;;;16.43;52.64;101095.84;5002984;28;45230;-42
2021/09/25 06:48:49;;;;;;;;;31.00;27.00;;;;;16.44;52.24;101091.41;5003169;28;45927;-42
2021/09/25 06:51:16;;;;;;;;;33.75;32.00;;;;;16.47;52.35;101088.66;5002949;28;45450;-42
2021/09/25 06:53:42;;;;;;;;;34.25;29.50;;;;;16.48;52.70;101083.28;5003207;28;45306;-41
2021/09/25 06:56:07;;;;;;;;;34.00;29.25;;;;;16.50;52.37;101072.63;5002883;28;45323;-44
2021/09/25 06:58:33;;;;;;;;;33.00;28.50;;;;;16.51;52.48;101072.56;5002764;28;45325;-44
2021/09/25 07:00:58;;;;;;;;;33.00;30.50;;;;;16.55;52.13;101079.53;5002683;28;45422;-44
2021/09/25 07:03:24;;;;;;;;;24.00;23.75;;;;;16.56;52.38;101073.31;5003150;28;45475;-41
2021/09/25 07:05:49;;;;;;;;;35.25;31.25;;;;;16.52;52.43;101054.88;5002849;28;45295;-42
2021/09/25 07:08:15;;;;;;;;;35.25;30.50;;;;;16.62;52.26;101066.91;5002854;28;46284;-44
2021/09/25 07:10:40;;;;;;;;;30.75;28.75;;;;;16.63;52.55;101060.69;5003516;28;45373;-44
2021/09/25 07:13:05;;;;;;;;;31.75;28.50;;;;;16.66;52.43;101068.53;5002760;28;45769;-43
2021/09/25 07:15:32;;;;;;;;;32.00;29.25;;;;;16.70;52.55;101074.59;5002533;28;45434;-43
2021/09/25 07:17:58;;;;;;;;;37.50;34.75;;;;;16.72;52.60;101076.28;5002777;28;45235;-43
2021/09/25 07:20:24;;;;;;;;;33.75;31.50;;;;;16.75;52.40;101075.31;5001439;28;45294;-42
2021/09/25 07:22:52;;;;;;;;;27.00;27.00;;;;;16.78;52.53;101076.97;5002857;28;45472;-44
2021/09/25 07:25:19;;;;;;;;;35.75;32.50;;;;;16.82;52.65;101075.97;5002522;28;45428;-43
2021/09/25 07:27:45;;;;;;;;;38.00;35.25;;;;;16.84;52.68;101063.50;5002435;28;45341;-43
2021/09/25 07:30:11;;;;;;;;;34.50;31.00;;;;;16.86;52.59;101070.50;5000982;28;45357;-43
2021/09/25 07:32:36;;;;;;;;;36.50;33.50;;;;;16.91;52.45;101067.72;5002688;28;45329;-43
2021/09/25 07:35:02;;;;;;;;;35.00;32.00;;;;;16.95;52.75;101071.97;5002257;28;45183;-43
2021/09/25 07:37:27;;;;;;;;;32.75;30.50;;;;;16.97;52.66;101062.19;4998653;28;45907;-48
2021/09/25 07:39:53;;;;;;;;;37.00;30.50;;;;;17.03;52.71;101069.94;5002720;28;45447;-48
2021/09/25 07:42:20;;;;;;;;;32.25;31.00;;;;;17.08;52.68;101061.81;5000844;28;45308;-47
2021/09/25 07:44:46;;;;;;;;;37.25;32.25;;;;;17.11;52.59;101056.38;5001779;28;46074;-47
2021/09/25 07:47:12;;;;;;;;;33.75;30.00;;;;;17.16;52.77;101051.75;5001026;28;45514;-46
2021/09/25 07:49:38;;;;;;;;;38.50;35.25;;;;;17.21;52.52;101054.25;5001472;28;45338;-46
2021/09/25 07:52:04;;;;;;;;;38.75;35.25;;;;;17.24;52.79;101038.19;5001958;28;45363;-45
2021/09/25 07:54:29;;;;;;;;;31.75;28.25;;;;;17.30;52.78;101040.63;5000137;28;45492;-45
2021/09/25 07:56:54;;;;;;;;;40.50;34.50;;;;;17.35;52.73;101043.97;5000591;28;47125;-45
2021/09/25 07:59:20;;;;;;;;;27.50;24.75;;;;;17.41;52.68;101042.88;5001721;28;45294;-46
2021/09/25 08:01:46;;;;;;;;;38.75;33.75;;;;;17.46;52.72;101050.66;4998012;28;45450;-44
2021/09/25 08:04:12;;;;;;;;;36.75;33.00;;;;;17.51;52.75;101046.91;5000303;28;45193;-46
2021/09/25 08:06:37;;;;;;;;;42.00;34.25;;;;;17.56;52.88;101041.44;5001679;28;45428;-46
2021/09/25 08:09:02;;;;;;;;;35.50;30.00;;;;;17.60;52.64;101048.34;4998634;28;45233;-47
2021/09/25 08:11:28;;;;;;;;;30.00;29.25;;;;;17.65;52.71;101045.53;5001614;28;45202;-47
2021/09/25 08:13:53;;;;;;;;;29.75;29.00;;;;;17.72;52.82;101041.69;5001526;28;45254;-50
2021/09/25 08:16:18;;;;;;;;;29.75;28.75;;;;;17.77;52.87;101042.38;5001310;28;45170;-49
2021/09/25 08:18:44;;;;;;;;;35.50;29.75;;;;;17.83;52.95;101059.88;5000227;28;45405;-50
2021/09/25 08:21:09;;;;;;;;;30.75;29.00;;;;;17.87;52.76;101057.03;5001835;28;45345;-54
2021/09/25 08:23:35;;;;;;;;;41.00;32.75;;;;;17.94;52.98;101059.50;5001188;28;45647;-47
2021/09/25 08:26:00;;;;;;;;;29.50;28.00;;;;;17.98;52.96;101061.09;5001462;28;45934;-47
2021/09/25 08:28:26;;;;;;;;;32.50;28.25;;;;;18.02;52.63;101060.03;5001232;28;45337;-46
2021/09/25 08:30:52;;;;;;;;;34.75;32.00;;;;;18.08;53.06;101054.47;4999942;28;45456;-47
2021/09/25 08:33:17;;;;;;;;;34.00;30.75;;;;;18.14;52.78;101045.41;5001181;28;45444;-45
2021/09/25 08:35:43;;;;;;;;;34.75;31.00;;;;;18.20;52.67;101039.81;4996469;28;45383;-48
2021/09/25 08:38:08;;;;;;;;;40.25;30.50;;;;;18.26;52.86;101038.69;5002046;28;45384;-47
2021/09/25 08:40:33;;;;;;;;;34.00;31.75;;;;;18.33;52.87;101040.16;5000268;28;45364;-49
2021/09/25 08:42:59;;;;;;;;;37.00;31.50;;;;;18.39;52.98;101041.69;5000895;28;45606;-47
2021/09/25 08:45:25;;;;;;;;;36.50;30.50;;;;;18.45;52.91;101044.09;5000710;28;46136;-49
2021/09/25 08:47:51;;;;;;;;;35.50;32.00;;;;;18.50;52.98;101039.44;5002128;28;46018;-49
2021/09/25 08:50:17;;;;;;;;;35.00;29.25;;;;;18.56;52.94;101051.63;5001384;28;45338;-46
2021/09/25 08:52:44;;;;;;;;;35.75;30.25;;;;;18.61;52.65;101044.31;5000535;28;45496;-46
2021/09/25 08:55:11;;;;;;;;;28.75;27.50;;;;;18.68;52.62;101040.47;5000896;28;46392;-48
2021/09/25 08:57:36;;;;;;;;;34.25;28.75;;;;;18.73;52.93;101050.88;5001153;28;45248;-51
2021/09/25 09:00:29;;;;;;;;;31.00;28.75;;;;;18.79;52.63;101040.84;5000267;28;45327;-49
2021/09/25 09:02:55;;;;;;;;;34.25;31.50;;;;;18.87;52.62;101044.97;5000497;28;45522;-47
2021/09/25 09:05:31;;;;;;;;;37.25;32.25;;;;;18.93;52.56;101048.25;5001957;28;46126;-48
2021/09/25 09:08:01;;;;;;;;;33.25;29.25;;;;;19.01;52.81;101042.59;4990960;28;45227;-44
2021/09/25 09:10:32;;;;;;;;;29.25;28.50;;;;;19.10;52.69;101043.97;4999427;28;45392;-47
2021/09/25 09:12:58;;;;;;;;;28.75;27.25;;;;;19.20;52.51;101049.75;4990875;28;45294;-45
2021/09/25 09:15:31;;;;;;;;;35.75;31.25;;;;;19.28;53.05;101036.94;5001607;28;46209;-45
2021/09/25 09:17:57;;;;;;;;;33.25;28.75;;;;;19.40;52.54;101049.69;5000793;28;45551;-46
2021/09/25 09:20:22;;;;;;;;;33.50;32.00;;;;;19.52;52.79;101050.94;5000445;28;45337;-45
2021/09/25 09:22:48;;;;;;;;;30.75;28.50;;;;;19.64;53.00;101052.16;5000607;28;45325;-48
2021/09/25 09:25:13;;;;;;;;;34.00;29.50;;;;;19.78;52.90;101048.81;5000286;28;45470;-49
2021/09/25 09:27:44;;;;;;;;;27.50;25.50;;;;;19.92;52.26;101045.53;5000455;28;45309;-47
2021/09/25 09:30:14;;;;;;;;;31.00;28.25;;;;;20.06;52.95;101045.72;5000274;28;45309;-46
2021/09/25 09:32:41;;;;;;;;;34.75;30.25;;;;;20.19;52.58;101043.31;4989828;28;45406;-45
2021/09/25 09:35:21;;;;;;;;;32.00;29.50;;;;;20.34;52.56;101035.47;4997766;28;46120;-46
2021/09/25 09:37:52;;;;;;;;;26.50;25.25;;;;;20.50;52.56;101033.72;5000105;28;45380;-45
2021/09/25 09:40:19;;;;;;;;;29.00;26.00;;;;;20.69;52.41;101031.00;4999652;28;45298;-45
2021/09/25 09:42:46;;;;;;;;;24.75;23.25;;;;;20.84;52.41;101020.47;5001435;28;45331;-46
2021/09/25 09:45:23;;;;;;;;;33.25;30.25;;;;;21.02;52.63;101019.50;4998326;28;45413;-58
2021/09/25 09:47:48;;;;;;;;;36.75;32.50;;;;;21.20;52.73;101008.75;4999968;28;45450;-49
2021/09/25 09:50:14;;;;;;;;;29.00;27.75;;;;;21.35;52.15;101012.41;5000291;28;45365;-45
2021/09/25 09:52:40;;;;;;;;;31.75;28.25;;;;;21.51;51.94;101005.25;5001063;28;45392;-48
2021/09/25 09:55:06;;;;;;;;;29.25;28.25;;;;;21.66;52.56;101011.59;4998636;28;45476;-46
2021/09/25 09:57:34;;;;;;;;;28.25;25.75;;;;;21.83;52.12;101013.28;4999864;28;45230;-46
2021/09/25 10:00:00;;;;;;;;;38.50;30.50;;;;;21.99;51.91;101026.66;5000048;28;45183;-46
2021/09/25 10:02:25;;;;;;;;;29.50;27.75;;;;;22.13;51.96;101009.78;5001074;28;45471;-45
2021/09/25 10:04:51;;;;;;;;;24.75;24.50;;;;;22.34;51.91;101012.13;4999910;28;45459;-48
2021/09/25 10:07:17;;;;;;;;;32.25;28.00;;;;;22.48;52.15;101011.38;4997200;28;45342;-45
2021/09/25 10:09:42;;;;;;;;;36.00;30.25;;;;;22.65;51.81;101008.50;5000301;28;45349;-46
2021/09/25 10:12:13;;;;;;;;;24.50;21.50;;;;;22.81;51.69;101004.91;5001030;28;45443;-46
2021/09/25 10:14:41;;;;;;;;;21.00;20.25;;;;;22.97;51.41;100997.63;4999673;28;45230;-48
2021/09/25 10:17:09;;;;;;;;;26.25;22.50;;;;;23.14;51.53;100998.41;5000713;28;45373;-47
2021/09/25 10:19:36;;;;;;;;;22.25;22.00;;;;;23.29;51.24;101013.53;4999849;28;45250;-48
2021/09/25 10:22:21;;;;;;;;;21.00;19.25;;;;;23.46;51.26;101014.25;5000604;28;45479;-46
2021/09/25 10:24:58;;;;;;;;;17.00;16.50;;;;;23.63;51.00;101013.19;5014716;28;47377;-49
2021/09/25 10:27:36;;;;;;;;;17.50;16.00;;;;;23.76;50.75;101011.44;4990853;28;45369;-48
2021/09/25 10:30:04;;;;;;;;;14.75;14.75;;;;;23.91;50.66;101009.59;5000664;28;45471;-48
2021/09/25 10:32:40;;;;;;;;;18.25;16.50;;;;;24.05;50.63;101015.84;4990181;28;45341;-55
2021/09/25 10:35:23;;;;;;;;;13.00;13.00;;;;;24.19;50.71;101015.78;4999469;28;45365;-46
2021/09/25 10:37:54;;;;;;;;;17.50;17.00;;;;;24.31;49.90;101012.28;5000391;28;45329;-45
2021/09/25 10:40:25;;;;;;;;;17.00;15.75;;;;;24.45;50.38;101007.78;5000020;28;45822;-45
2021/09/25 10:43:00;;;;;;;;;17.75;17.75;;;;;24.56;49.86;100999.84;4998975;28;45408;-44
2021/09/25 10:45:34;;;;;;;;;19.25;15.00;;;;;24.71;49.76;100995.25;5000046;28;46067;-45
2021/09/25 10:48:23;;;;;;;;;15.00;15.00;;;;;24.89;49.80;100987.75;4999261;28;45309;-49
2021/09/25 10:50:58;;;;;;;;;15.00;15.00;;;;;25.06;49.63;100983.00;5000650;28;45359;-48
2021/09/25 10:53:26;;;;;;;;;15.00;15.00;;;;;25.19;49.34;100981.13;4987843;28;45492;-46
2021/09/25 10:55:55;;;;;;;;;14.00;14.00;;;;;25.36;49.63;100979.03;4999076;28;46123;-46
2021/09/25 10:58:23;;;;;;;;;13.25;13.25;;;;;25.52;49.65;100977.00;4999200;28;45360;-45
2021/09/25 11:00:52;;;;;;;;;18.25;17.75;;;;;25.69;49.10;100978.41;5000201;28;45507;-47
2021/09/25 11:03:39;;;;;;;;;18.00;16.75;;;;;25.89;48.79;100974.22;4999278;28;45297;-46
2021/09/25 11:06:06;;;;;;;;;12.75;12.75;;;;;26.09;49.53;100963.81;4998972;28;46382;-47